Time;durP1;ratioP1;P1;durP2;ratioP2;P2;SDS_P1;SDS_P2;PMS_P1;PMS_P2;Temp;Humidity;BMP_temperature;BMP_pressure;BME280_temperature;BME280_humidity;BME280_pressure;Samples;Min_cycle;Max_cycle;Signal;HPM_P1;HPM_P2
2023/07/08 00:01:28;;;;;;;;;;;;;;;25.28;40.54;101442.64;2243970;78;51526;-75
2023/07/08 00:04:30;;;;;;;;;;;;;;;25.28;40.54;101442.64;2222837;79;51530;-74
2023/07/08 00:07:32;;;;;;;;;;;;;;;25.28;40.51;101446.70;2224242;79;49527;-74
2023/07/08 00:10:33;;;;;;;;;;;;;;;25.28;40.51;101442.64;2268407;78;49916;-74
2023/07/08 00:13:35;;;;;;;;;;;;;;;25.28;40.49;101446.70;2222826;79;50222;-75
2023/07/08 00:16:36;;;;;;;;;;;;;;;25.28;40.47;101448.06;2269993;77;50642;-75
2023/07/08 00:19:38;;;;;;;;;;;;;;;25.29;40.49;101444.30;2242551;78;51366;-75
2023/07/08 00:22:40;;;;;;;;;;;;;;;25.28;40.49;101453.48;2243455;79;50643;-76
2023/07/08 00:25:42;;;;;;;;;;;;;;;25.28;40.48;101444.00;2222777;79;51613;-74
2023/07/08 00:28:44;;;;;;;;;;;;;;;25.28;40.48;101446.70;2269389;77;50305;-75
2023/07/08 00:31:45;;;;;;;;;;;;;;;25.28;40.48;101441.30;2234619;78;50973;-75
2023/07/08 00:34:47;;;;;;;;;;;;;;;25.29;40.43;101448.36;2280818;78;50255;-75
2023/07/08 00:37:52;;;;;;;;;;;;;;;25.30;40.43;101443.77;2257124;78;50641;-76
2023/07/08 00:41:00;;;;;;;;;;;;;;;25.29;40.42;101439.41;2261895;78;22198;-75
2023/07/08 00:44:02;;;;;;;;;;;;;;;25.28;40.40;101439.94;2257450;78;52587;-75
2023/07/08 00:47:04;;;;;;;;;;;;;;;25.27;40.45;101442.31;2255083;78;50650;-76
2023/07/08 00:50:08;;;;;;;;;;;;;;;25.28;40.38;101435.88;2280783;78;50273;-76
2023/07/08 00:53:26;;;;;;;;;;;;;;;25.28;40.39;101443.14;2280832;78;50527;-76
2023/07/08 00:56:35;;;;;;;;;;;;;;;25.29;40.36;101437.53;2254988;78;51735;-76
2023/07/08 00:59:38;;;;;;;;;;;;;;;25.29;40.36;101440.23;2243276;79;51447;-74
2023/07/08 01:02:42;;;;;;;;;;;;;;;25.27;40.42;101438.25;2243502;79;50119;-75
2023/07/08 01:05:43;;;;;;;;;;;;;;;25.28;40.38;101439.08;2242515;79;51535;-75
2023/07/08 01:08:45;;;;;;;;;;;;;;;25.28;40.38;101440.43;2225031;78;52366;-75
2023/07/08 01:11:47;;;;;;;;;;;;;;;25.27;40.32;101438.78;2266740;78;51360;-75
2023/07/08 01:14:48;;;;;;;;;;;;;;;25.28;40.32;101445.35;2279020;78;51439;-75
2023/07/08 01:17:53;;;;;;;;;;;;;;;25.28;40.31;101441.78;2260967;78;50239;-74
2023/07/08 01:20:55;;;;;;;;;;;;;;;25.27;40.33;101438.25;2245735;78;22267;-77
2023/07/08 01:23:56;;;;;;;;;;;;;;;25.28;40.30;101433.16;2281179;76;25605;-74
2023/07/08 01:26:58;;;;;;;;;;;;;;;25.27;40.31;101428.77;2277471;76;50228;-75
2023/07/08 01:30:00;;;;;;;;;;;;;;;25.27;40.31;101431.48;2281061;78;52155;-75
2023/07/08 01:33:03;;;;;;;;;;;;;;;25.27;40.29;101431.48;2259610;78;52533;-75
2023/07/08 01:36:05;;;;;;;;;;;;;;;25.27;40.27;101432.83;2279877;78;50669;-74
2023/07/08 01:39:06;;;;;;;;;;;;;;;25.26;40.30;101424.41;2230033;78;50242;-75
2023/07/08 01:42:08;;;;;;;;;;;;;;;25.26;40.28;101423.05;2242898;79;50190;-75
2023/07/08 01:45:12;;;;;;;;;;;;;;;25.27;40.28;101426.06;2222704;79;51636;-75
2023/07/08 01:48:16;;;;;;;;;;;;;;;25.28;40.27;101423.69;2245792;78;50716;-75
2023/07/08 01:51:17;;;;;;;;;;;;;;;25.27;40.30;101420.64;2242341;79;51499;-74
2023/07/08 01:54:19;;;;;;;;;;;;;;;25.27;40.31;101415.75;2243513;79;51486;-75
2023/07/08 01:57:21;;;;;;;;;;;;;;;25.26;40.27;101408.16;2253519;78;51406;-75
2023/07/08 02:00:22;;;;;;;;;;;;;;;25.26;40.28;101409.51;2280873;78;50352;-75
2023/07/08 02:03:24;;;;;;;;;;;;;;;25.27;40.25;101412.52;2280930;78;51653;-75
2023/07/08 02:06:25;;;;;;;;;;;;;;;25.26;40.20;101408.68;2258757;77;50613;-75
2023/07/08 02:09:28;;;;;;;;;;;;;;;25.26;40.21;101408.16;2251182;78;51629;-75
2023/07/08 02:12:29;;;;;;;;;;;;;;;25.26;40.21;101408.16;2259923;78;50290;-75
2023/07/08 02:15:31;;;;;;;;;;;;;;;25.26;40.18;101412.22;2222676;79;50404;-75
2023/07/08 02:18:32;;;;;;;;;;;;;;;25.25;40.18;101407.82;2259715;78;50733;-74
2023/07/08 02:21:34;;;;;;;;;;;;;;;25.26;40.16;101404.62;2222498;79;50361;-75
2023/07/08 02:24:35;;;;;;;;;;;;;;;25.25;40.16;101407.82;2222655;79;50425;-75
2023/07/08 02:27:37;;;;;;;;;;;;;;;25.26;40.13;101415.45;2239461;78;50733;-74
2023/07/08 02:30:39;;;;;;;;;;;;;;;25.26;40.13;101405.97;2243614;79;51565;-75
2023/07/08 02:33:41;;;;;;;;;;;;;;;25.26;40.10;101405.97;2198982;79;52395;-74
2023/07/08 02:36:43;;;;;;;;;;;;;;;25.25;40.14;101406.47;2244677;78;49673;-75
2023/07/08 02:39:45;;;;;;;;;;;;;;;25.26;40.17;101407.33;2248674;78;50696;-75
2023/07/08 02:42:46;;;;;;;;;;;;;;;25.26;40.13;101414.92;2266945;78;51522;-76
2023/07/08 02:45:51;;;;;;;;;;;;;;;25.26;40.14;101408.68;2232808;78;52500;-76
2023/07/08 02:48:53;;;;;;;;;;;;;;;25.27;40.12;101408.45;2246454;78;50353;-76
2023/07/08 02:51:54;;;;;;;;;;;;;;;25.25;40.14;101406.47;2280936;78;50009;-76
2023/07/08 02:54:56;;;;;;;;;;;;;;;25.25;40.16;101405.11;2280968;78;49914;-75
2023/07/08 02:57:58;;;;;;;;;;;;;;;25.25;40.17;101409.17;2239712;78;51142;-77
2023/07/08 03:01:00;;;;;;;;;;;;;;;25.26;40.18;101409.51;2280766;78;50631;-77
2023/07/08 03:04:02;;;;;;;;;;;;;;;25.26;40.17;101404.09;2280779;78;50490;-77
2023/07/08 03:07:03;;;;;;;;;;;;;;;25.26;40.21;101404.09;2277555;78;50402;-77
2023/07/08 03:10:06;;;;;;;;;;;;;;;25.25;40.17;101399.70;2237931;78;52457;-77
2023/07/08 03:13:07;;;;;;;;;;;;;;;25.25;40.18;101394.28;2235927;79;51462;-77
2023/07/08 03:16:12;;;;;;;;;;;;;;;25.25;40.16;101407.82;2243915;78;50261;-77
2023/07/08 03:19:14;;;;;;;;;;;;;;;25.25;40.06;101398.34;2247960;78;23002;-76
2023/07/08 03:22:15;;;;;;;;;;;;;;;25.24;40.05;101395.33;2281120;78;22608;-76
2023/07/08 03:25:19;;;;;;;;;;;;;;;25.24;40.04;101389.92;2259586;78;50096;-76
2023/07/08 03:28:20;;;;;;;;;;;;;;;25.25;40.04;101388.03;2259827;78;22404;-76
2023/07/08 03:31:22;;;;;;;;;;;;;;;25.24;40.00;101393.16;2281038;78;50449;-76
2023/07/08 03:34:23;;;;;;;;;;;;;;;25.23;40.04;101390.97;2259447;78;50094;-76
2023/07/08 03:37:25;;;;;;;;;;;;;;;25.23;39.96;101389.62;2256713;78;51420;-76
2023/07/08 03:40:27;;;;;;;;;;;;;;;25.24;39.84;101388.56;2264762;78;51504;-76
2023/07/08 03:43:28;;;;;;;;;;;;;;;25.23;39.82;101385.55;2272528;78;51492;-76
2023/07/08 03:46:30;;;;;;;;;;;;;;;25.23;39.81;101394.17;2256075;78;51228;-76
2023/07/08 03:49:31;;;;;;;;;;;;;;;25.23;39.74;101392.33;2257955;78;50241;-76
2023/07/08 03:52:33;;;;;;;;;;;;;;;25.23;39.73;101391.47;2280810;78;50292;-75
2023/07/08 03:55:35;;;;;;;;;;;;;;;25.23;39.66;101390.11;2259275;78;50705;-76
2023/07/08 03:58:36;;;;;;;;;;;;;;;25.22;39.63;101386.58;2280507;78;50257;-76
2023/07/08 04:01:41;;;;;;;;;;;;;;;25.22;39.61;101393.34;2281046;78;50663;-76
2023/07/08 04:04:42;;;;;;;;;;;;;;;25.22;39.63;101393.34;2280914;78;51530;-76
2023/07/08 04:07:44;;;;;;;;;;;;;;;25.22;39.56;101400.13;2278493;78;51398;-76
2023/07/08 04:10:45;;;;;;;;;;;;;;;25.21;39.49;101397.11;2242308;78;51646;-76
2023/07/08 04:13:47;;;;;;;;;;;;;;;25.21;39.56;101395.76;2275682;78;49961;-76
2023/07/08 04:16:52;;;;;;;;;;;;;;;25.20;39.51;101392.22;2275973;78;50226;-76
2023/07/08 04:19:56;;;;;;;;;;;;;;;25.20;39.50;101395.43;2243589;79;51434;-77
2023/07/08 04:22:57;;;;;;;;;;;;;;;25.20;39.51;101394.94;2234625;79;22473;-76
2023/07/08 04:25:59;;;;;;;;;;;;;;;25.19;39.49;101392.42;2224885;79;50649;-76
2023/07/08 04:29:00;;;;;;;;;;;;;;;25.20;39.50;101395.43;2273728;78;50710;-77
2023/07/08 04:32:02;;;;;;;;;;;;;;;25.20;39.47;101399.48;2259215;78;51397;-76
2023/07/08 04:35:04;;;;;;;;;;;;;;;25.20;39.49;101394.08;2234819;78;50062;-76
2023/07/08 04:38:21;;;;;;;;;;;;;;;25.19;39.46;101400.55;2258156;78;50243;-76
2023/07/08 04:41:23;;;;;;;;;;;;;;;25.20;39.43;101403.05;2259353;78;50414;-75
2023/07/08 04:44:24;;;;;;;;;;;;;;;25.20;39.43;101401.70;2257064;78;50099;-76
2023/07/08 04:47:29;;;;;;;;;;;;;;;25.23;39.53;101401.81;2244384;79;51660;-76
2023/07/08 04:50:30;;;;;;;;;;;;;;;25.25;39.70;101407.00;2230927;79;23013;-76
2023/07/08 04:53:32;;;;;;;;;;;;;;;25.28;39.71;101403.37;2243508;79;50680;-76
2023/07/08 04:56:41;;;;;;;;;;;;;;;25.31;39.67;101400.23;2232622;78;51440;-76
2023/07/08 04:59:42;;;;;;;;;;;;;;;25.36;39.61;101396.90;2222502;79;52612;-77
2023/07/08 05:02:44;;;;;;;;;;;;;;;25.42;39.51;101393.34;2241778;78;51497;-75
2023/07/08 05:05:45;;;;;;;;;;;;;;;25.52;39.37;101400.52;2259717;78;50888;-76
2023/07/08 05:08:47;;;;;;;;;;;;;;;25.61;39.16;101405.17;2271415;78;52059;-76
2023/07/08 05:11:49;;;;;;;;;;;;;;;25.68;38.95;101403.28;2267023;78;52535;-76
2023/07/08 05:14:50;;;;;;;;;;;;;;;25.73;38.80;101403.48;2223206;79;51481;-76
2023/07/08 05:17:52;;;;;;;;;;;;;;;25.82;38.66;101405.46;2244644;78;51499;-76
2023/07/08 05:20:54;;;;;;;;;;;;;;;25.88;38.48;101403.27;2244204;79;51486;-76
2023/07/08 05:23:56;;;;;;;;;;;;;;;25.95;38.36;101403.26;2223196;79;51676;-75
2023/07/08 05:26:58;;;;;;;;;;;;;;;26.02;38.20;101398.62;2225190;78;51452;-77
2023/07/08 05:30:00;;;;;;;;;;;;;;;26.07;38.06;101401.52;2223882;79;50354;-76
2023/07/08 05:33:02;;;;;;;;;;;;;;;26.13;37.96;101400.68;2256364;78;50774;-76
2023/07/08 05:36:04;;;;;;;;;;;;;;;26.19;37.77;101405.76;2262272;78;52676;-76
2023/07/08 05:39:05;;;;;;;;;;;;;;;26.23;37.66;101409.19;2259390;78;50758;-76
2023/07/08 05:42:07;;;;;;;;;;;;;;;26.28;37.54;101401.73;2239699;79;50819;-76
2023/07/08 05:45:10;;;;;;;;;;;;;;;26.31;37.39;101404.53;2257386;78;50748;-76
2023/07/08 05:48:11;;;;;;;;;;;;;;;26.36;37.26;101400.15;2241589;78;51804;-76
2023/07/08 05:51:13;;;;;;;;;;;;;;;26.41;37.17;101402.19;2225448;79;50628;-76
2023/07/08 05:54:15;;;;;;;;;;;;;;;26.43;37.11;101400.09;2263408;78;51416;-77
2023/07/08 05:57:16;;;;;;;;;;;;;;;26.48;37.02;101405.70;2283242;76;51641;-75
2023/07/08 06:00:18;;;;;;;;;;;;;;;26.54;36.96;101405.38;2238722;78;51644;-75
2023/07/08 06:03:19;;;;;;;;;;;;;;;26.58;36.86;101407.98;2282699;78;50233;-76
2023/07/08 06:06:21;;;;;;;;;;;;;;;26.60;36.80;101409.42;2224502;79;50428;-76
2023/07/08 06:09:22;;;;;;;;;;;;;;;26.65;36.72;101415.03;2259063;78;50245;-76
2023/07/08 06:12:24;;;;;;;;;;;;;;;26.68;36.68;101418.66;2221554;78;50085;-75
2023/07/08 06:15:26;;;;;;;;;;;;;;;26.73;36.60;101422.62;2246890;78;51261;-77
2023/07/08 06:18:27;;;;;;;;;;;;;;;26.76;36.56;101426.25;2234041;79;50225;-76
2023/07/08 06:21:29;;;;;;;;;;;;;;;26.80;36.48;101423.41;2272293;78;50669;-76
2023/07/08 06:24:30;;;;;;;;;;;;;;;26.95;36.27;101428.00;2253463;78;51100;-75
2023/07/08 06:27:33;;;;;;;;;;;;;;;27.25;35.48;101426.00;2239317;78;50633;-75
2023/07/08 06:30:34;;;;;;;;;;;;;;;27.31;35.01;101427.85;2260599;78;51494;-76
2023/07/08 06:33:36;;;;;;;;;;;;;;;27.39;34.57;101433.00;2265840;78;51415;-75
2023/07/08 06:36:38;;;;;;;;;;;;;;;27.44;34.31;101432.33;2212672;78;50109;-76
2023/07/08 06:39:39;;;;;;;;;;;;;;;27.42;34.58;101429.83;2271953;76;50287;-77
2023/07/08 06:42:41;;;;;;;;;;;;;;;27.39;34.73;101426.20;2260832;78;50397;-76
2023/07/08 06:45:43;;;;;;;;;;;;;;;27.32;34.56;101424.06;2250929;78;50433;-76
2023/07/08 06:48:45;;;;;;;;;;;;;;;27.28;34.76;101417.41;2258019;77;51470;-77
2023/07/08 06:51:46;;;;;;;;;;;;;;;27.30;34.66;101414.77;2261966;78;51582;-76
2023/07/08 06:54:48;;;;;;;;;;;;;;;27.17;34.62;101414.85;2271305;78;50710;-76
2023/07/08 06:57:50;;;;;;;;;;;;;;;27.14;34.83;101414.77;2266137;78;51462;-77
2023/07/08 07:00:51;;;;;;;;;;;;;;;27.25;34.77;101416.49;2244648;78;51155;-76
2023/07/08 07:03:53;;;;;;;;;;;;;;;27.27;34.76;101419.83;2250468;78;50664;-77
2023/07/08 07:06:55;;;;;;;;;;;;;;;27.28;34.68;101414.69;2230677;79;51430;-77
2023/07/08 07:09:56;;;;;;;;;;;;;;;27.27;34.81;101417.94;2231438;78;51861;-76
2023/07/08 07:12:58;;;;;;;;;;;;;;;27.26;34.93;101413.56;2234043;78;49544;-76
2023/07/08 07:15:59;;;;;;;;;;;;;;;27.32;34.95;101419.98;2250840;78;51626;-76
2023/07/08 07:19:01;;;;;;;;;;;;;;;27.30;34.87;101426.16;2260214;78;51485;-76
2023/07/08 07:22:03;;;;;;;;;;;;;;;27.27;34.67;101423.90;2281560;77;50730;-75
2023/07/08 07:25:04;;;;;;;;;;;;;;;27.27;34.79;101429.33;2235489;78;51413;-77
2023/07/08 07:28:06;;;;;;;;;;;;;;;27.26;34.67;101419.53;2250717;78;50229;-75
2023/07/08 07:31:10;;;;;;;;;;;;;;;27.20;34.96;101420.41;2260489;78;51568;-76
2023/07/08 07:34:11;;;;;;;;;;;;;;;27.19;35.58;101413.31;2281669;78;22340;-76
2023/07/08 07:37:13;;;;;;;;;;;;;;;27.20;35.91;101416.33;2241794;78;51292;-76
2023/07/08 07:40:15;;;;;;;;;;;;;;;27.17;36.29;101415.39;2240984;78;51378;-76
2023/07/08 07:43:16;;;;;;;;;;;;;;;27.18;36.57;101414.35;2255544;78;50056;-75
2023/07/08 07:46:18;;;;;;;;;;;;;;;27.18;36.65;101411.64;2278956;78;50353;-75
2023/07/08 07:49:20;;;;;;;;;;;;;;;27.18;36.86;101408.92;2243127;78;51180;-75
2023/07/08 07:52:24;;;;;;;;;;;;;;;27.15;36.86;101419.17;2259530;78;51622;-74
2023/07/08 07:55:25;;;;;;;;;;;;;;;27.14;36.96;101413.41;2260096;78;22394;-75
2023/07/08 07:58:27;;;;;;;;;;;;;;;27.15;37.04;101416.95;2254064;78;51641;-75
2023/07/08 08:01:29;;;;;;;;;;;;;;;27.14;37.15;101409.87;2222637;78;52494;-75
2023/07/08 08:04:30;;;;;;;;;;;;;;;27.11;37.24;101411.15;2239427;78;50659;-75
2023/07/08 08:07:32;;;;;;;;;;;;;;;27.10;37.33;101412.21;2259378;78;51524;-76
2023/07/08 08:10:33;;;;;;;;;;;;;;;27.10;37.32;101414.93;2259848;78;50206;-77
2023/07/08 08:13:35;;;;;;;;;;;;;;;27.09;37.34;101414.61;2253600;78;52550;-76
2023/07/08 08:16:36;;;;;;;;;;;;;;;27.08;37.39;101411.59;2253214;78;50772;-75
2023/07/08 08:19:38;;;;;;;;;;;;;;;27.07;37.42;101415.34;2267669;78;50192;-74
2023/07/08 08:22:40;;;;;;;;;;;;;;;27.07;37.44;101421.31;2243590;77;51653;-76
2023/07/08 08:25:41;;;;;;;;;;;;;;;27.06;37.49;101413.70;2222533;79;51478;-75
2023/07/08 08:28:43;;;;;;;;;;;;;;;27.05;37.58;101416.63;2222879;79;51464;-75
2023/07/08 08:31:45;;;;;;;;;;;;;;;27.04;37.64;101418.52;2243782;79;51557;-75
2023/07/08 08:34:46;;;;;;;;;;;;;;;27.06;37.71;101421.84;2222979;79;51497;-75
2023/07/08 08:37:48;;;;;;;;;;;;;;;27.04;37.74;101423.12;2201329;78;52527;-76
2023/07/08 08:40:49;;;;;;;;;;;;;;;27.03;37.82;101421.47;2257783;78;51457;-75
2023/07/08 08:43:51;;;;;;;;;;;;;;;27.01;37.82;101427.11;2222799;79;51431;-75
2023/07/08 08:46:57;;;;;;;;;;;;;;;27.00;37.88;101428.17;2243457;79;51531;-74
2023/07/08 08:50:04;;;;;;;;;;;;;;;26.97;38.01;101422.33;2251814;78;52460;-75
2023/07/08 08:53:06;;;;;;;;;;;;;;;26.95;38.12;101422.57;2280800;78;49981;-75
2023/07/08 08:56:24;;;;;;;;;;;;;;;26.95;38.10;101421.22;2280951;78;51587;-76
2023/07/08 08:59:28;;;;;;;;;;;;;;;26.93;38.23;101426.85;2280197;76;50749;-76
2023/07/08 09:02:43;;;;;;;;;;;;;;;26.90;38.30;101415.08;2259427;78;51059;-76
2023/07/08 09:05:45;;;;;;;;;;;;;;;26.92;38.30;101423.84;2280859;78;51475;-76
2023/07/08 09:08:47;;;;;;;;;;;;;;;26.91;38.39;101418.62;2268750;78;51456;-76
2023/07/08 09:11:50;;;;;;;;;;;;;;;26.88;38.49;101425.33;2267464;78;51425;-76
2023/07/08 09:14:52;;;;;;;;;;;;;;;26.89;38.46;101415.28;2276849;78;51439;-76
2023/07/08 09:17:56;;;;;;;;;;;;;;;26.86;38.47;101416.56;2233958;79;51450;-77
2023/07/08 09:20:57;;;;;;;;;;;;;;;26.84;38.51;101417.30;2244167;77;22465;-75
2023/07/08 09:24:00;;;;;;;;;;;;;;;26.83;38.48;101412.10;2243639;79;51456;-76
2023/07/08 09:27:02;;;;;;;;;;;;;;;26.83;38.51;101414.82;2258764;78;52400;-75
2023/07/08 09:30:03;;;;;;;;;;;;;;;26.81;38.55;101415.03;2234123;79;51544;-76
2023/07/08 09:33:05;;;;;;;;;;;;;;;26.82;38.38;101411.78;2243584;79;51294;-76
2023/07/08 09:36:18;;;;;;;;;;;;;;;26.78;38.44;101413.29;2243528;79;51591;-75
2023/07/08 09:39:20;;;;;;;;;;;;;;;26.75;38.54;101414.56;2257345;78;50331;-76
2023/07/08 09:42:22;;;;;;;;;;;;;;;26.71;38.57;101406.00;2246163;78;50689;-77
2023/07/08 09:45:24;;;;;;;;;;;;;;;26.70;38.57;101407.06;2279284;78;51542;-75
2023/07/08 09:48:27;;;;;;;;;;;;;;;26.70;38.46;101402.99;2246688;78;51534;-76
2023/07/08 09:51:29;;;;;;;;;;;;;;;26.68;38.52;101401.02;2245033;79;50305;-77
2023/07/08 09:54:32;;;;;;;;;;;;;;;26.67;38.54;101401.25;2234327;79;50011;-76
2023/07/08 09:57:34;;;;;;;;;;;;;;;26.66;38.55;101404.47;2234280;79;51612;-75
2023/07/08 10:00:42;;;;;;;;;;;;;;;26.65;38.53;101400.10;2280664;76;50751;-76
2023/07/08 10:03:44;;;;;;;;;;;;;;;26.65;38.53;101401.99;2259403;78;52574;-77
2023/07/08 10:06:52;;;;;;;;;;;;;;;26.65;38.53;101403.34;2280940;78;50361;-77
2023/07/08 10:09:50;;;;;;;;;;;;;;;26.62;38.58;101404.62;2264825;78;22280;-77
2023/07/08 10:12:59;;;;;;;;;;;;;;;26.61;38.51;101400.22;2253599;78;50807;-81
2023/07/08 10:16:02;;;;;;;;;;;;;;;26.62;38.53;101404.62;2223087;79;51701;-76
2023/07/08 10:19:11;;;;;;;;;;;;;;;26.60;38.52;101391.78;2243846;78;50735;-77
2023/07/08 10:22:24;;;;;;;;;;;;;;;26.59;38.58;101393.34;2244013;79;50460;-77
2023/07/08 10:25:29;;;;;;;;;;;;;;;26.58;38.55;101392.52;2243815;79;50800;-76
2023/07/08 10:28:35;;;;;;;;;;;;;;;26.58;38.47;101404.73;2279143;78;51423;-76
2023/07/08 10:31:38;;;;;;;;;;;;;;;26.56;38.50;101395.97;2271172;78;50267;-76
2023/07/08 10:34:45;;;;;;;;;;;;;;;26.55;38.50;101394.32;2243694;79;50312;-76
2023/07/08 10:37:56;;;;;;;;;;;;;;;26.54;38.48;101384.53;2243544;79;50392;-77
2023/07/08 10:40:59;;;;;;;;;;;;;;;26.52;38.46;101383.91;2235334;79;51050;-77
2023/07/08 10:44:08;;;;;;;;;;;;;;;26.51;38.47;101391.69;2243639;79;51592;-77
2023/07/08 10:47:14;;;;;;;;;;;;;;;26.51;38.48;101382.19;2243670;79;50333;-76
2023/07/08 10:50:20;;;;;;;;;;;;;;;26.49;38.46;101375.64;2243615;79;50576;-77
2023/07/08 10:53:23;;;;;;;;;;;;;;;26.49;38.47;101380.25;2250391;78;52511;-77
2023/07/08 10:56:44;;;;;;;;;;;;;;;26.48;38.44;101384.81;2271739;78;51498;-77
2023/07/08 10:59:48;;;;;;;;;;;;;;;26.46;38.42;101382.87;2271217;77;50326;-77
2023/07/08 11:03:07;;;;;;;;;;;;;;;26.47;38.39;101379.63;2270605;78;51507;-77
2023/07/08 11:06:14;;;;;;;;;;;;;;;26.48;38.38;101375.84;2267557;76;52398;-76
2023/07/08 11:09:26;;;;;;;;;;;;;;;26.45;38.40;101378.48;2283448;77;51476;-76
2023/07/08 11:12:29;;;;;;;;;;;;;;;26.45;38.42;101374.41;2285956;77;50300;-77
2023/07/08 11:15:32;;;;;;;;;;;;;;;26.44;38.40;101374.11;2272091;77;50451;-76
2023/07/08 11:18:36;;;;;;;;;;;;;;;26.44;38.37;101367.86;2289623;77;51499;-77
2023/07/08 11:21:42;;;;;;;;;;;;;;;26.43;38.40;101365.64;2266465;77;52579;-77
2023/07/08 11:24:46;;;;;;;;;;;;;;;26.42;38.36;101363.99;2290924;77;51433;-77
2023/07/08 11:27:49;;;;;;;;;;;;;;;26.41;38.38;101364.20;2288600;76;50726;-77
2023/07/08 11:30:51;;;;;;;;;;;;;;;26.42;38.37;101352.31;2273718;77;51513;-76
2023/07/08 11:33:52;;;;;;;;;;;;;;;26.41;38.35;101359.63;2271566;76;49961;-77
2023/07/08 11:36:55;;;;;;;;;;;;;;;26.39;38.34;101354.94;2291178;77;50202;-76
2023/07/08 11:40:01;;;;;;;;;;;;;;;26.41;38.27;101346.06;2284135;77;52115;-77
2023/07/08 11:43:05;;;;;;;;;;;;;;;26.40;38.25;101346.27;2278438;77;50786;-77
2023/07/08 11:46:07;;;;;;;;;;;;;;;26.39;38.25;101343.26;2265930;77;51877;-77
2023/07/08 11:49:13;;;;;;;;;;;;;;;26.38;38.19;101341.58;2247439;78;50006;-77
2023/07/08 11:52:16;;;;;;;;;;;;;;;26.38;38.17;101345.64;2254216;79;51455;-77
2023/07/08 11:55:19;;;;;;;;;;;;;;;26.39;38.17;101344.61;2231211;79;50534;-77
2023/07/08 11:58:25;;;;;;;;;;;;;;;26.40;38.11;101346.27;2232480;77;51246;-77
2023/07/08 12:01:31;;;;;;;;;;;;;;;26.38;38.15;101332.91;2253999;79;50687;-76
2023/07/08 12:04:35;;;;;;;;;;;;;;;26.37;38.14;101327.72;2253959;78;51589;-77
2023/07/08 12:07:44;;;;;;;;;;;;;;;26.38;38.04;101332.08;2253665;79;51593;-77
2023/07/08 12:10:50;;;;;;;;;;;;;;;26.38;38.00;101324.77;2243360;77;51751;-77
2023/07/08 12:13:52;;;;;;;;;;;;;;;26.37;38.01;101320.93;2290241;77;51730;-77
2023/07/08 12:16:54;;;;;;;;;;;;;;;26.37;38.05;101322.28;2291486;76;51476;-75
2023/07/08 12:19:55;;;;;;;;;;;;;;;26.35;38.02;101318.42;2282503;77;51422;-76
2023/07/08 12:22:57;;;;;;;;;;;;;;;26.35;38.02;101331.16;2255333;78;52290;-76
2023/07/08 12:25:59;;;;;;;;;;;;;;;26.36;38.07;101326.03;2230941;79;50770;-75
2023/07/08 12:29:01;;;;;;;;;;;;;;;26.34;38.11;101318.66;2253522;79;50350;-76
2023/07/08 12:32:03;;;;;;;;;;;;;;;26.34;38.11;101318.13;2288603;77;51280;-76
2023/07/08 12:35:05;;;;;;;;;;;;;;;26.35;38.11;101323.02;2267683;77;51211;-76
2023/07/08 12:38:09;;;;;;;;;;;;;;;26.36;38.09;101315.17;2291360;77;50709;-77
2023/07/08 12:41:12;;;;;;;;;;;;;;;26.34;38.11;101306.45;2276207;77;52364;-77
2023/07/08 12:44:15;;;;;;;;;;;;;;;26.35;38.09;101316.24;2277508;78;52207;-77
2023/07/08 12:47:18;;;;;;;;;;;;;;;26.34;38.11;101307.28;2251206;78;52437;-76
2023/07/08 12:50:20;;;;;;;;;;;;;;;26.35;38.08;101305.39;2271531;78;51804;-76
2023/07/08 12:53:21;;;;;;;;;;;;;;;26.36;38.05;101300.25;2254884;78;50737;-77
2023/07/08 12:56:23;;;;;;;;;;;;;;;26.36;37.92;101303.83;2230934;79;50700;-76
2023/07/08 12:59:25;;;;;;;;;;;;;;;26.36;37.85;101302.47;2229763;79;51232;-76
2023/07/08 13:02:27;;;;;;;;;;;;;;;26.36;37.79;101300.25;2254143;77;50920;-77
2023/07/08 13:05:28;;;;;;;;;;;;;;;26.36;37.81;101294.33;2253964;79;51412;-77
2023/07/08 13:08:31;;;;;;;;;;;;;;;26.35;37.95;101295.36;2257935;77;51415;-77
2023/07/08 13:11:32;;;;;;;;;;;;;;;26.35;37.91;101292.64;2248784;77;52586;-77
2023/07/08 13:14:35;;;;;;;;;;;;;;;26.37;37.89;101297.87;2268033;77;53518;-77
2023/07/08 13:17:38;;;;;;;;;;;;;;;26.38;37.84;101299.52;2291772;77;50313;-76
2023/07/08 13:20:40;;;;;;;;;;;;;;;26.38;37.91;101291.37;2274905;76;50759;-76
2023/07/08 13:23:42;;;;;;;;;;;;;;;26.36;37.96;101282.13;2231006;79;50127;-76
2023/07/08 13:26:45;;;;;;;;;;;;;;;26.36;37.98;101286.69;2253778;79;50418;-76
2023/07/08 13:29:46;;;;;;;;;;;;;;;26.36;37.97;101282.13;2258211;77;51526;-76
2023/07/08 13:32:55;;;;;;;;;;;;;;;26.38;37.94;101280.52;2267920;77;51358;-76
2023/07/08 13:35:57;;;;;;;;;;;;;;;26.38;38.00;101283.23;2291576;77;51656;-76
2023/07/08 13:38:59;;;;;;;;;;;;;;;26.38;38.03;101273.20;2257474;77;50626;-76
2023/07/08 13:42:00;;;;;;;;;;;;;;;26.37;38.07;101285.66;2283394;77;50430;-77
2023/07/08 13:45:02;;;;;;;;;;;;;;;26.38;38.03;101282.70;2278576;78;50363;-76
2023/07/08 13:48:08;;;;;;;;;;;;;;;26.37;38.07;101278.34;2257007;77;52613;-76
2023/07/08 13:51:12;;;;;;;;;;;;;;;26.38;38.08;101280.52;2278553;77;52261;-77
2023/07/08 13:54:15;;;;;;;;;;;;;;;26.38;38.09;101273.73;2276514;78;51486;-77
2023/07/08 13:57:17;;;;;;;;;;;;;;;26.38;38.09;101272.38;2278427;77;50250;-77
2023/07/08 14:00:19;;;;;;;;;;;;;;;26.39;38.07;101270.82;2258256;77;52424;-76
2023/07/08 14:03:21;;;;;;;;;;;;;;;26.39;38.13;101279.49;2267941;77;50054;-77
2023/07/08 14:06:24;;;;;;;;;;;;;;;26.39;38.08;101268.64;2267843;77;51460;-77
2023/07/08 14:09:25;;;;;;;;;;;;;;;26.40;38.10;101271.64;2275133;77;50251;-77
2023/07/08 14:12:27;;;;;;;;;;;;;;;26.40;38.12;101276.54;2277093;77;50405;-76
2023/07/08 14:15:29;;;;;;;;;;;;;;;26.38;38.17;101266.95;2289850;77;50402;-76
2023/07/08 14:18:30;;;;;;;;;;;;;;;26.41;38.12;101271.94;2289622;77;50662;-77
2023/07/08 14:21:33;;;;;;;;;;;;;;;26.41;38.09;101270.08;2290339;77;50610;-76
2023/07/08 14:24:34;;;;;;;;;;;;;;;26.44;38.10;101272.34;2291000;77;50734;-76
2023/07/08 14:27:36;;;;;;;;;;;;;;;26.45;38.11;101273.17;2267213;77;50332;-77
2023/07/08 14:30:39;;;;;;;;;;;;;;;26.45;38.13;101265.03;2289564;77;50259;-76
2023/07/08 14:33:41;;;;;;;;;;;;;;;26.44;38.15;101263.38;2293931;77;50851;-77
2023/07/08 14:36:42;;;;;;;;;;;;;;;26.44;38.15;101258.78;2270086;77;50088;-77
2023/07/08 14:39:45;;;;;;;;;;;;;;;26.46;38.15;101257.18;2282429;77;50713;-76
2023/07/08 14:42:47;;;;;;;;;;;;;;;26.48;38.12;101265.94;2286655;77;50800;-77
2023/07/08 14:45:50;;;;;;;;;;;;;;;26.50;38.10;101267.37;2290995;77;50721;-77
2023/07/08 14:48:51;;;;;;;;;;;;;;;26.48;38.13;101261.34;2269483;77;51783;-77
2023/07/08 14:51:53;;;;;;;;;;;;;;;26.50;38.14;101259.77;2247580;78;51540;-77
2023/07/08 14:54:56;;;;;;;;;;;;;;;26.54;38.07;101262.89;2258389;79;50747;-76
2023/07/08 14:57:58;;;;;;;;;;;;;;;26.54;38.09;101256.11;2242034;78;50761;-76
2023/07/08 15:01:05;;;;;;;;;;;;;;;26.55;38.06;101254.54;2238995;79;50961;-76
2023/07/08 15:04:13;;;;;;;;;;;;;;;26.55;38.08;101251.83;2253565;79;50108;-77
2023/07/08 15:07:14;;;;;;;;;;;;;;;26.52;38.16;101245.99;2254541;79;50413;-77
2023/07/08 15:10:16;;;;;;;;;;;;;;;26.53;38.13;101244.42;2263198;77;51529;-75
2023/07/08 15:13:19;;;;;;;;;;;;;;;26.53;38.11;101245.78;2232368;79;50684;-77
2023/07/08 15:16:21;;;;;;;;;;;;;;;26.53;38.10;101245.78;2254071;77;51618;-76
2023/07/08 15:19:23;;;;;;;;;;;;;;;26.52;38.15;101245.48;2260440;77;50709;-75
2023/07/08 15:22:24;;;;;;;;;;;;;;;26.51;38.19;101245.13;2279315;77;51445;-76
2023/07/08 15:25:26;;;;;;;;;;;;;;;26.49;38.22;101241.30;2243344;77;52354;-76
2023/07/08 15:28:35;;;;;;;;;;;;;;;26.51;38.25;101247.84;2266087;76;51446;-75
2023/07/08 15:31:37;;;;;;;;;;;;;;;26.51;38.24;101245.13;2284210;77;51542;-76
2023/07/08 15:34:38;;;;;;;;;;;;;;;26.52;38.25;101241.42;2257187;77;51576;-76
2023/07/08 15:37:40;;;;;;;;;;;;;;;26.51;38.25;101232.92;2256050;77;52147;-76